sensor_id;sensor_type;location;lat;lon;timestamp;temperature;humidity
74153;DHT22;62505;46.070;14.492;2023-08-24T00:01:26;26.40;92.00
74153;DHT22;62505;46.070;14.492;2023-08-24T00:03:53;26.40;91.90
74153;DHT22;62505;46.070;14.492;2023-08-24T00:06:20;26.40;91.70
74153;DHT22;62505;46.070;14.492;2023-08-24T00:08:47;26.40;91.80
74153;DHT22;62505;46.070;14.492;2023-08-24T00:11:14;26.40;91.80
74153;DHT22;62505;46.070;14.492;2023-08-24T00:13:41;26.40;91.90
74153;DHT22;62505;46.070;14.492;2023-08-24T00:16:13;26.40;91.90
74153;DHT22;62505;46.070;14.492;2023-08-24T00:18:41;26.40;91.80
74153;DHT22;62505;46.070;14.492;2023-08-24T00:21:08;26.40;91.90
74153;DHT22;62505;46.070;14.492;2023-08-24T00:23:35;26.40;91.80
74153;DHT22;62505;46.070;14.492;2023-08-24T00:26:02;26.40;91.70
74153;DHT22;62505;46.070;14.492;2023-08-24T00:28:29;26.40;91.70
74153;DHT22;62505;46.070;14.492;2023-08-24T00:30:56;26.40;91.90
74153;DHT22;62505;46.070;14.492;2023-08-24T00:33:24;26.40;91.50
74153;DHT22;62505;46.070;14.492;2023-08-24T00:35:51;26.40;91.30
74153;DHT22;62505;46.070;14.492;2023-08-24T00:38:18;26.40;91.60
74153;DHT22;62505;46.070;14.492;2023-08-24T00:40:45;26.40;91.90
74153;DHT22;62505;46.070;14.492;2023-08-24T00:43:13;26.40;91.60
74153;DHT22;62505;46.070;14.492;2023-08-24T00:45:40;26.40;91.70
74153;DHT22;62505;46.070;14.492;2023-08-24T00:48:07;26.40;91.70
74153;DHT22;62505;46.070;14.492;2023-08-24T00:50:36;26.40;91.70
74153;DHT22;62505;46.070;14.492;2023-08-24T00:53:03;26.40;91.70
74153;DHT22;62505;46.070;14.492;2023-08-24T00:55:30;26.40;91.80
74153;DHT22;62505;46.070;14.492;2023-08-24T00:57:57;26.40;91.90
74153;DHT22;62505;46.070;14.492;2023-08-24T01:00:25;26.40;91.90
74153;DHT22;62505;46.070;14.492;2023-08-24T01:02:53;26.40;91.80
74153;DHT22;62505;46.070;14.492;2023-08-24T01:05:20;26.40;92.00
74153;DHT22;62505;46.070;14.492;2023-08-24T01:07:48;26.40;91.70
74153;DHT22;62505;46.070;14.492;2023-08-24T01:10:15;26.40;91.90
74153;DHT22;62505;46.070;14.492;2023-08-24T01:12:50;26.40;92.00
74153;DHT22;62505;46.070;14.492;2023-08-24T01:15:23;26.40;92.00
74153;DHT22;62505;46.070;14.492;2023-08-24T01:17:54;26.40;92.10
74153;DHT22;62505;46.070;14.492;2023-08-24T01:20:24;26.40;92.00
74153;DHT22;62505;46.070;14.492;2023-08-24T01:23:01;26.40;91.90
74153;DHT22;62505;46.070;14.492;2023-08-24T01:25:38;26.40;92.00
74153;DHT22;62505;46.070;14.492;2023-08-24T01:28:09;26.40;92.10
74153;DHT22;62505;46.070;14.492;2023-08-24T01:30:36;26.40;91.80
74153;DHT22;62505;46.070;14.492;2023-08-24T01:33:04;26.40;91.80
74153;DHT22;62505;46.070;14.492;2023-08-24T01:35:31;26.40;92.20
74153;DHT22;62505;46.070;14.492;2023-08-24T01:37:58;26.40;91.90
74153;DHT22;62505;46.070;14.492;2023-08-24T01:40:35;26.40;92.10
74153;DHT22;62505;46.070;14.492;2023-08-24T01:43:05;26.40;91.60
74153;DHT22;62505;46.070;14.492;2023-08-24T01:45:35;26.40;91.90
74153;DHT22;62505;46.070;14.492;2023-08-24T01:48:03;26.40;92.10
74153;DHT22;62505;46.070;14.492;2023-08-24T01:50:31;26.40;91.70
74153;DHT22;62505;46.070;14.492;2023-08-24T01:52:59;26.40;91.90
74153;DHT22;62505;46.070;14.492;2023-08-24T01:55:26;26.40;92.10
74153;DHT22;62505;46.070;14.492;2023-08-24T01:57:55;26.40;91.70
74153;DHT22;62505;46.070;14.492;2023-08-24T02:00:22;26.40;92.00
74153;DHT22;62505;46.070;14.492;2023-08-24T02:02:50;26.40;91.80
74153;DHT22;62505;46.070;14.492;2023-08-24T02:05:17;26.40;91.70
74153;DHT22;62505;46.070;14.492;2023-08-24T02:07:44;26.40;91.90
74153;DHT22;62505;46.070;14.492;2023-08-24T02:10:12;26.40;91.90
74153;DHT22;62505;46.070;14.492;2023-08-24T02:12:38;26.40;91.80
74153;DHT22;62505;46.070;14.492;2023-08-24T02:15:06;26.40;91.80
74153;DHT22;62505;46.070;14.492;2023-08-24T02:17:33;26.40;91.90
74153;DHT22;62505;46.070;14.492;2023-08-24T02:20:01;26.40;91.70
74153;DHT22;62505;46.070;14.492;2023-08-24T02:22:30;26.40;91.80
74153;DHT22;62505;46.070;14.492;2023-08-24T02:24:58;26.40;91.80
74153;DHT22;62505;46.070;14.492;2023-08-24T02:27:24;26.40;91.90
74153;DHT22;62505;46.070;14.492;2023-08-24T02:29:52;26.40;91.80
74153;DHT22;62505;46.070;14.492;2023-08-24T02:32:19;26.40;91.80
74153;DHT22;62505;46.070;14.492;2023-08-24T02:34:46;26.40;91.80
74153;DHT22;62505;46.070;14.492;2023-08-24T02:37:14;26.40;91.70
74153;DHT22;62505;46.070;14.492;2023-08-24T02:39:41;26.40;91.80
74153;DHT22;62505;46.070;14.492;2023-08-24T02:42:08;26.40;91.90
74153;DHT22;62505;46.070;14.492;2023-08-24T02:44:35;26.40;92.10
74153;DHT22;62505;46.070;14.492;2023-08-24T02:47:02;26.40;91.60
74153;DHT22;62505;46.070;14.492;2023-08-24T02:49:29;26.40;91.70
74153;DHT22;62505;46.070;14.492;2023-08-24T02:51:56;26.40;91.50
74153;DHT22;62505;46.070;14.492;2023-08-24T02:54:25;26.40;91.80
74153;DHT22;62505;46.070;14.492;2023-08-24T02:56:52;26.40;91.70
74153;DHT22;62505;46.070;14.492;2023-08-24T02:59:20;26.40;91.70
74153;DHT22;62505;46.070;14.492;2023-08-24T03:01:47;26.40;91.70
74153;DHT22;62505;46.070;14.492;2023-08-24T03:04:14;26.40;91.60
74153;DHT22;62505;46.070;14.492;2023-08-24T03:06:40;26.40;91.60
74153;DHT22;62505;46.070;14.492;2023-08-24T03:09:09;26.30;91.50
74153;DHT22;62505;46.070;14.492;2023-08-24T03:11:39;26.40;91.70
74153;DHT22;62505;46.070;14.492;2023-08-24T03:14:06;26.40;91.70
74153;DHT22;62505;46.070;14.492;2023-08-24T03:16:33;26.40;91.70
74153;DHT22;62505;46.070;14.492;2023-08-24T03:19:00;26.30;91.60
74153;DHT22;62505;46.070;14.492;2023-08-24T03:21:27;26.30;91.50
74153;DHT22;62505;46.070;14.492;2023-08-24T03:23:56;26.30;91.50
74153;DHT22;62505;46.070;14.492;2023-08-24T03:26:23;26.30;91.30
74153;DHT22;62505;46.070;14.492;2023-08-24T03:28:51;26.40;91.30
74153;DHT22;62505;46.070;14.492;2023-08-24T03:31:19;26.40;91.60
74153;DHT22;62505;46.070;14.492;2023-08-24T03:33:46;26.30;91.30
74153;DHT22;62505;46.070;14.492;2023-08-24T03:36:13;26.30;91.40
74153;DHT22;62505;46.070;14.492;2023-08-24T03:38:40;26.30;91.40
74153;DHT22;62505;46.070;14.492;2023-08-24T03:41:07;26.30;91.30
74153;DHT22;62505;46.070;14.492;2023-08-24T03:43:35;26.30;91.30
74153;DHT22;62505;46.070;14.492;2023-08-24T03:46:04;26.30;91.20
74153;DHT22;62505;46.070;14.492;2023-08-24T03:48:31;26.30;91.20
74153;DHT22;62505;46.070;14.492;2023-08-24T03:50:58;26.30;91.10
74153;DHT22;62505;46.070;14.492;2023-08-24T03:53:25;26.30;91.30
74153;DHT22;62505;46.070;14.492;2023-08-24T03:55:53;26.30;91.30
74153;DHT22;62505;46.070;14.492;2023-08-24T03:58:20;26.30;91.30
74153;DHT22;62505;46.070;14.492;2023-08-24T04:00:47;26.30;91.30
74153;DHT22;62505;46.070;14.492;2023-08-24T04:03:16;26.30;91.00
74153;DHT22;62505;46.070;14.492;2023-08-24T04:18:38;26.30;90.70
74153;DHT22;62505;46.070;14.492;2023-08-24T04:21:06;26.30;91.90
74153;DHT22;62505;46.070;14.492;2023-08-24T04:23:33;26.30;92.80
74153;DHT22;62505;46.070;14.492;2023-08-24T04:26:00;26.40;93.40
74153;DHT22;62505;46.070;14.492;2023-08-24T04:28:27;26.40;91.80
74153;DHT22;62505;46.070;14.492;2023-08-24T04:30:56;26.40;91.30
74153;DHT22;62505;46.070;14.492;2023-08-24T04:33:24;26.40;91.10
74153;DHT22;62505;46.070;14.492;2023-08-24T04:35:52;26.40;91.40
74153;DHT22;62505;46.070;14.492;2023-08-24T04:38:19;26.40;91.00
74153;DHT22;62505;46.070;14.492;2023-08-24T04:40:48;26.40;90.80
74153;DHT22;62505;46.070;14.492;2023-08-24T04:43:15;26.30;90.60
74153;DHT22;62505;46.070;14.492;2023-08-24T04:45:43;26.30;90.40
74153;DHT22;62505;46.070;14.492;2023-08-24T04:48:12;26.30;90.20
74153;DHT22;62505;46.070;14.492;2023-08-24T04:50:39;26.30;90.30
74153;DHT22;62505;46.070;14.492;2023-08-24T04:53:07;26.30;90.30
74153;DHT22;62505;46.070;14.492;2023-08-24T04:55:34;26.30;90.40
74153;DHT22;62505;46.070;14.492;2023-08-24T04:58:01;26.30;90.40
74153;DHT22;62505;46.070;14.492;2023-08-24T05:00:28;26.30;90.20
74153;DHT22;62505;46.070;14.492;2023-08-24T05:02:55;26.30;90.30
74153;DHT22;62505;46.070;14.492;2023-08-24T05:05:22;26.30;90.20
74153;DHT22;62505;46.070;14.492;2023-08-24T05:07:49;26.30;90.10
74153;DHT22;62505;46.070;14.492;2023-08-24T05:10:17;26.30;90.50
74153;DHT22;62505;46.070;14.492;2023-08-24T05:12:44;26.30;90.40
74153;DHT22;62505;46.070;14.492;2023-08-24T05:15:11;26.30;90.20
74153;DHT22;62505;46.070;14.492;2023-08-24T05:17:39;26.30;90.20
74153;DHT22;62505;46.070;14.492;2023-08-24T05:20:07;26.30;90.10
74153;DHT22;62505;46.070;14.492;2023-08-24T05:22:35;26.30;90.20
74153;DHT22;62505;46.070;14.492;2023-08-24T05:25:03;26.30;90.30
74153;DHT22;62505;46.070;14.492;2023-08-24T05:27:32;26.30;90.20
74153;DHT22;62505;46.070;14.492;2023-08-24T05:29:59;26.30;90.20
74153;DHT22;62505;46.070;14.492;2023-08-24T05:32:26;26.30;90.10
74153;DHT22;62505;46.070;14.492;2023-08-24T05:34:53;26.30;90.10
74153;DHT22;62505;46.070;14.492;2023-08-24T05:37:20;26.30;90.20
74153;DHT22;62505;46.070;14.492;2023-08-24T05:39:47;26.30;90.00
74153;DHT22;62505;46.070;14.492;2023-08-24T05:42:14;26.30;90.10
74153;DHT22;62505;46.070;14.492;2023-08-24T05:44:42;26.20;90.00
74153;DHT22;62505;46.070;14.492;2023-08-24T05:47:09;26.30;90.00
74153;DHT22;62505;46.070;14.492;2023-08-24T05:49:36;26.20;90.10
74153;DHT22;62505;46.070;14.492;2023-08-24T05:52:04;26.30;90.30
74153;DHT22;62505;46.070;14.492;2023-08-24T05:54:31;26.30;90.30
74153;DHT22;62505;46.070;14.492;2023-08-24T05:56:58;26.30;90.30
74153;DHT22;62505;46.070;14.492;2023-08-24T05:59:26;26.30;90.30
74153;DHT22;62505;46.070;14.492;2023-08-24T06:01:54;26.30;90.20
74153;DHT22;62505;46.070;14.492;2023-08-24T06:04:21;26.30;90.30
74153;DHT22;62505;46.070;14.492;2023-08-24T06:06:48;26.30;90.00
74153;DHT22;62505;46.070;14.492;2023-08-24T06:09:15;26.30;90.00
74153;DHT22;62505;46.070;14.492;2023-08-24T06:11:42;26.30;90.00
74153;DHT22;62505;46.070;14.492;2023-08-24T06:14:09;26.30;90.00
74153;DHT22;62505;46.070;14.492;2023-08-24T06:16:36;26.30;89.80
74153;DHT22;62505;46.070;14.492;2023-08-24T06:19:04;26.30;90.00
74153;DHT22;62505;46.070;14.492;2023-08-24T06:21:31;26.30;90.00
74153;DHT22;62505;46.070;14.492;2023-08-24T06:23:58;26.30;89.80
74153;DHT22;62505;46.070;14.492;2023-08-24T06:26:26;26.30;89.80
74153;DHT22;62505;46.070;14.492;2023-08-24T06:28:53;26.30;90.00
74153;DHT22;62505;46.070;14.492;2023-08-24T06:31:21;26.30;90.00
74153;DHT22;62505;46.070;14.492;2023-08-24T06:33:49;26.30;89.70
74153;DHT22;62505;46.070;14.492;2023-08-24T06:36:18;26.30;89.80
74153;DHT22;62505;46.070;14.492;2023-08-24T06:38:45;26.30;89.70
74153;DHT22;62505;46.070;14.492;2023-08-24T06:41:12;26.30;89.70
74153;DHT22;62505;46.070;14.492;2023-08-24T06:43:39;26.30;89.80
74153;DHT22;62505;46.070;14.492;2023-08-24T06:46:06;26.30;89.90
74153;DHT22;62505;46.070;14.492;2023-08-24T06:48:34;26.30;89.80
74153;DHT22;62505;46.070;14.492;2023-08-24T06:51:01;26.30;89.70
74153;DHT22;62505;46.070;14.492;2023-08-24T06:53:29;26.30;90.00
74153;DHT22;62505;46.070;14.492;2023-08-24T06:55:56;26.30;89.60
74153;DHT22;62505;46.070;14.492;2023-08-24T06:58:23;26.30;89.70
74153;DHT22;62505;46.070;14.492;2023-08-24T07:00:50;26.30;90.00
74153;DHT22;62505;46.070;14.492;2023-08-24T07:03:17;26.30;89.90
74153;DHT22;62505;46.070;14.492;2023-08-24T07:05:45;26.30;89.80
74153;DHT22;62505;46.070;14.492;2023-08-24T07:08:12;26.30;89.80
74153;DHT22;62505;46.070;14.492;2023-08-24T07:10:41;26.30;89.70
74153;DHT22;62505;46.070;14.492;2023-08-24T07:13:08;26.30;90.20
74153;DHT22;62505;46.070;14.492;2023-08-24T07:15:35;26.30;89.70
74153;DHT22;62505;46.070;14.492;2023-08-24T07:18:03;26.30;89.60
74153;DHT22;62505;46.070;14.492;2023-08-24T07:20:32;26.30;89.60
74153;DHT22;62505;46.070;14.492;2023-08-24T07:22:59;26.30;89.70
74153;DHT22;62505;46.070;14.492;2023-08-24T07:25:26;26.30;89.70
74153;DHT22;62505;46.070;14.492;2023-08-24T07:27:54;26.30;90.00
74153;DHT22;62505;46.070;14.492;2023-08-24T07:30:24;26.30;89.60
74153;DHT22;62505;46.070;14.492;2023-08-24T07:32:51;26.30;89.50
74153;DHT22;62505;46.070;14.492;2023-08-24T07:35:18;26.30;89.60
74153;DHT22;62505;46.070;14.492;2023-08-24T07:37:46;26.30;89.70
74153;DHT22;62505;46.070;14.492;2023-08-24T07:40:13;26.30;89.80
74153;DHT22;62505;46.070;14.492;2023-08-24T07:42:44;26.30;89.50
74153;DHT22;62505;46.070;14.492;2023-08-24T07:45:14;26.30;90.00
74153;DHT22;62505;46.070;14.492;2023-08-24T07:47:41;26.30;89.50
74153;DHT22;62505;46.070;14.492;2023-08-24T07:50:08;26.30;89.50
74153;DHT22;62505;46.070;14.492;2023-08-24T07:52:36;26.30;89.50
74153;DHT22;62505;46.070;14.492;2023-08-24T07:55:04;26.30;89.40
74153;DHT22;62505;46.070;14.492;2023-08-24T07:57:32;26.30;89.40
74153;DHT22;62505;46.070;14.492;2023-08-24T07:59:59;26.30;89.50
74153;DHT22;62505;46.070;14.492;2023-08-24T08:02:29;26.30;89.70
74153;DHT22;62505;46.070;14.492;2023-08-24T08:04:58;26.40;89.40
74153;DHT22;62505;46.070;14.492;2023-08-24T08:07:25;26.40;89.40
74153;DHT22;62505;46.070;14.492;2023-08-24T08:09:52;26.40;89.20
74153;DHT22;62505;46.070;14.492;2023-08-24T08:12:19;26.40;89.10
74153;DHT22;62505;46.070;14.492;2023-08-24T08:14:46;26.40;89.20
74153;DHT22;62505;46.070;14.492;2023-08-24T08:17:14;26.40;89.10
74153;DHT22;62505;46.070;14.492;2023-08-24T08:19:42;26.40;88.90
74153;DHT22;62505;46.070;14.492;2023-08-24T08:22:09;26.40;89.00
74153;DHT22;62505;46.070;14.492;2023-08-24T08:24:36;26.40;88.70
74153;DHT22;62505;46.070;14.492;2023-08-24T08:27:03;26.40;88.80
74153;DHT22;62505;46.070;14.492;2023-08-24T08:29:30;26.40;88.70
74153;DHT22;62505;46.070;14.492;2023-08-24T08:31:57;26.40;88.90
74153;DHT22;62505;46.070;14.492;2023-08-24T08:34:24;26.40;88.90
74153;DHT22;62505;46.070;14.492;2023-08-24T08:36:52;26.40;89.00
74153;DHT22;62505;46.070;14.492;2023-08-24T08:39:19;26.40;89.00
74153;DHT22;62505;46.070;14.492;2023-08-24T08:41:46;26.40;89.00
74153;DHT22;62505;46.070;14.492;2023-08-24T08:44:14;26.30;89.00
74153;DHT22;62505;46.070;14.492;2023-08-24T08:46:42;26.40;89.00
74153;DHT22;62505;46.070;14.492;2023-08-24T08:49:11;26.40;89.50
74153;DHT22;62505;46.070;14.492;2023-08-24T08:51:41;26.40;89.50
74153;DHT22;62505;46.070;14.492;2023-08-24T08:54:09;26.50;89.60
74153;DHT22;62505;46.070;14.492;2023-08-24T08:56:37;26.50;89.70
74153;DHT22;62505;46.070;14.492;2023-08-24T08:59:07;26.50;89.60
74153;DHT22;62505;46.070;14.492;2023-08-24T09:01:36;26.50;89.70
74153;DHT22;62505;46.070;14.492;2023-08-24T09:04:05;26.50;89.70
74153;DHT22;62505;46.070;14.492;2023-08-24T09:06:33;26.50;90.00
74153;DHT22;62505;46.070;14.492;2023-08-24T09:09:01;26.50;90.00
74153;DHT22;62505;46.070;14.492;2023-08-24T09:11:29;26.60;90.00
74153;DHT22;62505;46.070;14.492;2023-08-24T09:13:56;26.60;89.90
74153;DHT22;62505;46.070;14.492;2023-08-24T09:16:23;26.60;90.00
74153;DHT22;62505;46.070;14.492;2023-08-24T09:18:55;26.60;90.00
74153;DHT22;62505;46.070;14.492;2023-08-24T09:21:24;26.60;90.00
74153;DHT22;62505;46.070;14.492;2023-08-24T09:23:53;26.60;90.00
74153;DHT22;62505;46.070;14.492;2023-08-24T09:26:29;26.60;90.10
74153;DHT22;62505;46.070;14.492;2023-08-24T09:28:56;26.60;90.10
74153;DHT22;62505;46.070;14.492;2023-08-24T09:31:23;26.60;90.10
74153;DHT22;62505;46.070;14.492;2023-08-24T09:34:01;26.60;90.10
74153;DHT22;62505;46.070;14.492;2023-08-24T09:36:31;26.60;90.50
74153;DHT22;62505;46.070;14.492;2023-08-24T09:38:59;26.60;90.10
74153;DHT22;62505;46.070;14.492;2023-08-24T09:41:38;26.60;90.20
74153;DHT22;62505;46.070;14.492;2023-08-24T09:44:05;26.60;90.10
74153;DHT22;62505;46.070;14.492;2023-08-24T09:46:33;26.60;90.20
74153;DHT22;62505;46.070;14.492;2023-08-24T09:48:59;26.60;90.20
74153;DHT22;62505;46.070;14.492;2023-08-24T09:51:27;26.60;90.20
74153;DHT22;62505;46.070;14.492;2023-08-24T09:53:57;26.60;90.20
74153;DHT22;62505;46.070;14.492;2023-08-24T09:56:25;26.60;90.30
74153;DHT22;62505;46.070;14.492;2023-08-24T09:58:58;26.60;90.30
74153;DHT22;62505;46.070;14.492;2023-08-24T10:01:27;26.60;90.20
74153;DHT22;62505;46.070;14.492;2023-08-24T10:03:55;26.60;90.20
74153;DHT22;62505;46.070;14.492;2023-08-24T10:06:27;26.60;90.30
74153;DHT22;62505;46.070;14.492;2023-08-24T10:08:58;26.60;90.70
74153;DHT22;62505;46.070;14.492;2023-08-24T10:11:31;26.70;91.20
74153;DHT22;62505;46.070;14.492;2023-08-24T10:14:07;26.70;91.10
74153;DHT22;62505;46.070;14.492;2023-08-24T10:16:36;26.70;90.80
74153;DHT22;62505;46.070;14.492;2023-08-24T10:19:04;26.70;91.40
74153;DHT22;62505;46.070;14.492;2023-08-24T10:21:31;26.70;91.40
74153;DHT22;62505;46.070;14.492;2023-08-24T10:24:00;26.70;91.70
74153;DHT22;62505;46.070;14.492;2023-08-24T10:26:28;26.70;91.70
74153;DHT22;62505;46.070;14.492;2023-08-24T10:28:56;26.70;91.90
74153;DHT22;62505;46.070;14.492;2023-08-24T10:31:25;26.70;91.60
74153;DHT22;62505;46.070;14.492;2023-08-24T10:33:54;26.70;92.20
74153;DHT22;62505;46.070;14.492;2023-08-24T10:36:22;26.70;92.20
74153;DHT22;62505;46.070;14.492;2023-08-24T10:38:49;26.60;91.80
74153;DHT22;62505;46.070;14.492;2023-08-24T10:41:16;26.60;91.40
74153;DHT22;62505;46.070;14.492;2023-08-24T10:43:49;26.60;91.30
74153;DHT22;62505;46.070;14.492;2023-08-24T10:46:16;26.60;91.10
74153;DHT22;62505;46.070;14.492;2023-08-24T10:49:00;26.60;90.90
74153;DHT22;62505;46.070;14.492;2023-08-24T10:51:27;26.60;90.80
74153;DHT22;62505;46.070;14.492;2023-08-24T10:53:56;26.60;90.80
74153;DHT22;62505;46.070;14.492;2023-08-24T10:56:34;26.50;90.70
74153;DHT22;62505;46.070;14.492;2023-08-24T10:59:12;26.60;90.60
74153;DHT22;62505;46.070;14.492;2023-08-24T11:01:40;26.60;90.60
74153;DHT22;62505;46.070;14.492;2023-08-24T11:04:10;26.60;90.60
74153;DHT22;62505;46.070;14.492;2023-08-24T11:06:51;26.60;90.60
74153;DHT22;62505;46.070;14.492;2023-08-24T11:09:19;26.60;90.60
74153;DHT22;62505;46.070;14.492;2023-08-24T11:11:57;26.60;90.60
74153;DHT22;62505;46.070;14.492;2023-08-24T11:14:24;26.50;90.50
74153;DHT22;62505;46.070;14.492;2023-08-24T11:16:52;26.60;90.60
74153;DHT22;62505;46.070;14.492;2023-08-24T11:19:21;26.50;90.70
74153;DHT22;62505;46.070;14.492;2023-08-24T11:21:48;26.50;90.60
74153;DHT22;62505;46.070;14.492;2023-08-24T11:24:16;26.50;90.50
74153;DHT22;62505;46.070;14.492;2023-08-24T11:26:45;26.50;90.60
74153;DHT22;62505;46.070;14.492;2023-08-24T11:29:12;26.50;90.60
74153;DHT22;62505;46.070;14.492;2023-08-24T11:31:41;26.50;90.70
74153;DHT22;62505;46.070;14.492;2023-08-24T11:34:08;26.50;90.60
74153;DHT22;62505;46.070;14.492;2023-08-24T11:36:47;26.50;90.60
74153;DHT22;62505;46.070;14.492;2023-08-24T11:39:15;26.50;90.60
74153;DHT22;62505;46.070;14.492;2023-08-24T11:41:45;26.50;90.80
74153;DHT22;62505;46.070;14.492;2023-08-24T11:44:14;26.50;90.80
74153;DHT22;62505;46.070;14.492;2023-08-24T11:46:41;26.50;90.80
74153;DHT22;62505;46.070;14.492;2023-08-24T11:49:08;26.50;90.80
74153;DHT22;62505;46.070;14.492;2023-08-24T11:51:36;26.50;90.90
74153;DHT22;62505;46.070;14.492;2023-08-24T11:54:06;26.50;90.80
74153;DHT22;62505;46.070;14.492;2023-08-24T11:56:39;26.50;91.00
74153;DHT22;62505;46.070;14.492;2023-08-24T11:59:11;26.50;91.10
74153;DHT22;62505;46.070;14.492;2023-08-24T12:01:39;26.50;91.00
74153;DHT22;62505;46.070;14.492;2023-08-24T12:04:07;26.50;90.80
74153;DHT22;62505;46.070;14.492;2023-08-24T12:06:34;26.50;91.20
74153;DHT22;62505;46.070;14.492;2023-08-24T12:09:06;26.50;90.90
74153;DHT22;62505;46.070;14.492;2023-08-24T12:11:35;26.50;91.40
74153;DHT22;62505;46.070;14.492;2023-08-24T12:14:03;26.50;90.80
74153;DHT22;62505;46.070;14.492;2023-08-24T12:16:32;26.50;90.80
74153;DHT22;62505;46.070;14.492;2023-08-24T12:19:00;26.50;90.80
74153;DHT22;62505;46.070;14.492;2023-08-24T12:21:29;26.50;90.80
74153;DHT22;62505;46.070;14.492;2023-08-24T12:23:57;26.50;90.80
74153;DHT22;62505;46.070;14.492;2023-08-24T12:26:26;26.50;91.00
74153;DHT22;62505;46.070;14.492;2023-08-24T12:28:55;26.50;90.90
74153;DHT22;62505;46.070;14.492;2023-08-24T12:31:26;26.50;91.10
74153;DHT22;62505;46.070;14.492;2023-08-24T12:34:04;26.50;91.10
74153;DHT22;62505;46.070;14.492;2023-08-24T12:36:32;26.50;90.90
74153;DHT22;62505;46.070;14.492;2023-08-24T12:39:02;26.50;91.00
74153;DHT22;62505;46.070;14.492;2023-08-24T12:41:31;26.50;91.10
74153;DHT22;62505;46.070;14.492;2023-08-24T12:43:58;26.50;91.10
74153;DHT22;62505;46.070;14.492;2023-08-24T12:46:30;26.50;91.00
74153;DHT22;62505;46.070;14.492;2023-08-24T12:48:57;26.50;91.10
74153;DHT22;62505;46.070;14.492;2023-08-24T12:51:24;26.50;91.10
74153;DHT22;62505;46.070;14.492;2023-08-24T12:53:51;26.50;90.90
74153;DHT22;62505;46.070;14.492;2023-08-24T12:56:18;26.50;91.00
74153;DHT22;62505;46.070;14.492;2023-08-24T12:58:47;26.50;90.90
74153;DHT22;62505;46.070;14.492;2023-08-24T13:01:14;26.50;90.90
74153;DHT22;62505;46.070;14.492;2023-08-24T13:03:41;26.50;90.90
74153;DHT22;62505;46.070;14.492;2023-08-24T13:06:08;26.50;90.70
74153;DHT22;62505;46.070;14.492;2023-08-24T13:08:35;26.50;90.70
74153;DHT22;62505;46.070;14.492;2023-08-24T13:11:02;26.50;91.00
74153;DHT22;62505;46.070;14.492;2023-08-24T13:13:30;26.50;90.80
74153;DHT22;62505;46.070;14.492;2023-08-24T13:15:58;26.50;90.90
74153;DHT22;62505;46.070;14.492;2023-08-24T13:18:25;26.50;90.90
74153;DHT22;62505;46.070;14.492;2023-08-24T13:20:52;26.50;90.90
74153;DHT22;62505;46.070;14.492;2023-08-24T13:23:19;26.50;90.80
74153;DHT22;62505;46.070;14.492;2023-08-24T13:25:46;26.50;91.00
74153;DHT22;62505;46.070;14.492;2023-08-24T13:28:13;26.50;90.90
74153;DHT22;62505;46.070;14.492;2023-08-24T13:30:40;26.50;90.90
74153;DHT22;62505;46.070;14.492;2023-08-24T13:33:09;26.50;91.00
74153;DHT22;62505;46.070;14.492;2023-08-24T13:35:37;26.50;91.00
74153;DHT22;62505;46.070;14.492;2023-08-24T13:38:04;26.50;90.90
74153;DHT22;62505;46.070;14.492;2023-08-24T13:40:31;26.50;91.00
74153;DHT22;62505;46.070;14.492;2023-08-24T13:42:58;26.50;90.80
74153;DHT22;62505;46.070;14.492;2023-08-24T13:45:25;26.50;90.90
74153;DHT22;62505;46.070;14.492;2023-08-24T13:47:53;26.50;90.90
74153;DHT22;62505;46.070;14.492;2023-08-24T13:50:21;26.50;90.90
74153;DHT22;62505;46.070;14.492;2023-08-24T13:52:49;26.50;90.90
74153;DHT22;62505;46.070;14.492;2023-08-24T13:55:16;26.50;90.90
74153;DHT22;62505;46.070;14.492;2023-08-24T13:57:43;26.50;90.90
74153;DHT22;62505;46.070;14.492;2023-08-24T14:00:11;26.50;90.90
74153;DHT22;62505;46.070;14.492;2023-08-24T14:02:38;26.50;90.90
74153;DHT22;62505;46.070;14.492;2023-08-24T14:05:06;26.50;90.80
74153;DHT22;62505;46.070;14.492;2023-08-24T14:07:36;26.50;90.70
74153;DHT22;62505;46.070;14.492;2023-08-24T14:10:04;26.50;90.90
74153;DHT22;62505;46.070;14.492;2023-08-24T14:12:32;26.50;90.90
74153;DHT22;62505;46.070;14.492;2023-08-24T14:14:59;26.50;90.90
74153;DHT22;62505;46.070;14.492;2023-08-24T14:17:26;26.50;90.90
74153;DHT22;62505;46.070;14.492;2023-08-24T14:19:53;26.50;90.90
74153;DHT22;62505;46.070;14.492;2023-08-24T14:22:20;26.50;90.80
74153;DHT22;62505;46.070;14.492;2023-08-24T14:24:48;26.50;90.80
74153;DHT22;62505;46.070;14.492;2023-08-24T14:27:15;26.50;90.60
74153;DHT22;62505;46.070;14.492;2023-08-24T14:29:42;26.50;90.80
74153;DHT22;62505;46.070;14.492;2023-08-24T14:32:09;26.50;90.70
74153;DHT22;62505;46.070;14.492;2023-08-24T14:34:36;26.50;90.90
74153;DHT22;62505;46.070;14.492;2023-08-24T14:37:03;26.50;90.60
74153;DHT22;62505;46.070;14.492;2023-08-24T14:39:33;26.50;90.60
74153;DHT22;62505;46.070;14.492;2023-08-24T14:42:01;26.50;90.70
74153;DHT22;62505;46.070;14.492;2023-08-24T14:44:30;26.50;90.70
74153;DHT22;62505;46.070;14.492;2023-08-24T14:46:57;26.50;90.70
74153;DHT22;62505;46.070;14.492;2023-08-24T14:49:24;26.50;90.80
74153;DHT22;62505;46.070;14.492;2023-08-24T14:51:51;26.50;90.80
74153;DHT22;62505;46.070;14.492;2023-08-24T14:54:17;26.50;90.80
74153;DHT22;62505;46.070;14.492;2023-08-24T14:56:44;26.50;90.80
74153;DHT22;62505;46.070;14.492;2023-08-24T14:59:13;26.50;90.80
74153;DHT22;62505;46.070;14.492;2023-08-24T15:01:40;26.50;90.70
74153;DHT22;62505;46.070;14.492;2023-08-24T15:04:07;26.50;90.70
74153;DHT22;62505;46.070;14.492;2023-08-24T15:06:36;26.50;90.50
74153;DHT22;62505;46.070;14.492;2023-08-24T15:09:03;26.50;90.70
74153;DHT22;62505;46.070;14.492;2023-08-24T15:11:30;26.50;90.60
74153;DHT22;62505;46.070;14.492;2023-08-24T15:13:57;26.50;90.60
74153;DHT22;62505;46.070;14.492;2023-08-24T15:16:25;26.50;90.60
74153;DHT22;62505;46.070;14.492;2023-08-24T15:18:52;26.50;90.70
74153;DHT22;62505;46.070;14.492;2023-08-24T15:21:19;26.50;91.00
74153;DHT22;62505;46.070;14.492;2023-08-24T15:23:46;26.50;90.70
74153;DHT22;62505;46.070;14.492;2023-08-24T15:26:13;26.50;90.80
74153;DHT22;62505;46.070;14.492;2023-08-24T15:31:42;26.50;91.40
74153;DHT22;62505;46.070;14.492;2023-08-24T15:34:09;26.60;91.20
74153;DHT22;62505;46.070;14.492;2023-08-24T15:36:36;26.50;91.30